sensor_id;sensor_type;location;lat;lon;timestamp;pressure;altitude;pressure_sealevel;temperature;humidity
51496;BME280;37572;52.094;4.870;2022-09-28T00:01:51;99546.66;;;9.46;98.10
51496;BME280;37572;52.094;4.870;2022-09-28T00:04:17;99547.13;;;9.43;98.15
51496;BME280;37572;52.094;4.870;2022-09-28T00:06:42;99543.66;;;9.42;98.47
51496;BME280;37572;52.094;4.870;2022-09-28T00:09:08;99544.69;;;9.41;97.98
51496;BME280;37572;52.094;4.870;2022-09-28T00:11:34;99540.72;;;9.44;97.96
51496;BME280;37572;52.094;4.870;2022-09-28T00:14:01;99539.91;;;9.43;97.58
51496;BME280;37572;52.094;4.870;2022-09-28T00:16:34;99545.06;;;9.45;97.83
51496;BME280;37572;52.094;4.870;2022-09-28T00:19:00;99543.75;;;9.48;97.83
51496;BME280;37572;52.094;4.870;2022-09-28T00:21:29;99544.94;;;9.52;97.52
51496;BME280;37572;52.094;4.870;2022-09-28T00:23:57;99551.00;;;9.47;98.08
51496;BME280;37572;52.094;4.870;2022-09-28T00:26:53;99545.16;;;9.50;98.12
51496;BME280;37572;52.094;4.870;2022-09-28T00:29:30;99541.91;;;9.48;98.30
51496;BME280;37572;52.094;4.870;2022-09-28T00:31:58;99547.03;;;9.50;97.51
51496;BME280;37572;52.094;4.870;2022-09-28T00:34:26;99541.53;;;9.44;98.10
51496;BME280;37572;52.094;4.870;2022-09-28T00:36:52;99536.53;;;9.48;98.52
51496;BME280;37572;52.094;4.870;2022-09-28T00:39:17;99539.69;;;9.45;98.34
51496;BME280;37572;52.094;4.870;2022-09-28T00:41:44;99541.28;;;9.46;98.41
51496;BME280;37572;52.094;4.870;2022-09-28T00:47:06;99546.44;;;9.48;98.03
51496;BME280;37572;52.094;4.870;2022-09-28T00:49:39;99542.25;;;9.52;97.90
51496;BME280;37572;52.094;4.870;2022-09-28T00:52:08;99541.78;;;9.55;97.76
51496;BME280;37572;52.094;4.870;2022-09-28T00:54:36;99542.81;;;9.54;98.53
51496;BME280;37572;52.094;4.870;2022-09-28T00:59:37;99524.72;;;9.49;98.44
51496;BME280;37572;52.094;4.870;2022-09-28T01:02:02;99527.53;;;9.54;97.87
51496;BME280;37572;52.094;4.870;2022-09-28T01:04:28;99522.63;;;9.51;97.62
51496;BME280;37572;52.094;4.870;2022-09-28T01:06:56;99525.53;;;9.50;97.59
51496;BME280;37572;52.094;4.870;2022-09-28T01:09:24;99515.94;;;9.54;97.92
51496;BME280;37572;52.094;4.870;2022-09-28T01:11:49;99517.25;;;9.51;97.72
51496;BME280;37572;52.094;4.870;2022-09-28T01:14:15;99521.22;;;9.49;97.78
51496;BME280;37572;52.094;4.870;2022-09-28T01:16:51;99520.41;;;9.48;97.65
51496;BME280;37572;52.094;4.870;2022-09-28T01:25:06;99523.44;;;9.40;98.13
51496;BME280;37572;52.094;4.870;2022-09-28T01:27:38;99530.44;;;9.41;97.57
51496;BME280;37572;52.094;4.870;2022-09-28T01:30:06;99525.19;;;9.46;97.94
51496;BME280;37572;52.094;4.870;2022-09-28T01:35:10;99526.09;;;9.40;97.47
51496;BME280;37572;52.094;4.870;2022-09-28T01:37:45;99526.00;;;9.46;96.76
51496;BME280;37572;52.094;4.870;2022-09-28T01:40:17;99534.88;;;9.47;96.39
51496;BME280;37572;52.094;4.870;2022-09-28T01:42:46;99532.91;;;9.42;96.47
51496;BME280;37572;52.094;4.870;2022-09-28T01:45:26;99533.13;;;9.41;96.17
51496;BME280;37572;52.094;4.870;2022-09-28T01:47:59;99527.28;;;9.44;96.57
51496;BME280;37572;52.094;4.870;2022-09-28T01:50:28;99528.56;;;9.41;97.01
51496;BME280;37572;52.094;4.870;2022-09-28T01:55:44;99537.09;;;9.38;97.02
51496;BME280;37572;52.094;4.870;2022-09-28T01:58:14;99541.19;;;9.41;97.35
51496;BME280;37572;52.094;4.870;2022-09-28T02:00:44;99529.63;;;9.40;97.68
51496;BME280;37572;52.094;4.870;2022-09-28T02:03:18;99534.16;;;9.40;97.72
51496;BME280;37572;52.094;4.870;2022-09-28T02:05:51;99539.53;;;9.40;98.05
51496;BME280;37572;52.094;4.870;2022-09-28T02:08:36;99528.22;;;9.38;97.40
51496;BME280;37572;52.094;4.870;2022-09-28T02:11:13;99538.41;;;9.36;98.07
51496;BME280;37572;52.094;4.870;2022-09-28T02:13:45;99530.09;;;9.37;97.65
51496;BME280;37572;52.094;4.870;2022-09-28T02:16:37;99525.19;;;9.34;97.58
51496;BME280;37572;52.094;4.870;2022-09-28T02:19:04;99527.19;;;9.39;97.82
51496;BME280;37572;52.094;4.870;2022-09-28T02:24:17;99522.63;;;9.39;98.20
51496;BME280;37572;52.094;4.870;2022-09-28T02:26:47;99516.44;;;9.39;98.38
51496;BME280;37572;52.094;4.870;2022-09-28T02:29:14;99512.34;;;9.36;98.54
51496;BME280;37572;52.094;4.870;2022-09-28T02:31:39;99520.16;;;9.38;98.11
51496;BME280;37572;52.094;4.870;2022-09-28T02:34:04;99525.63;;;9.43;98.12
51496;BME280;37572;52.094;4.870;2022-09-28T02:36:31;99524.59;;;9.44;97.32
51496;BME280;37572;52.094;4.870;2022-09-28T02:38:57;99522.72;;;9.44;97.74
51496;BME280;37572;52.094;4.870;2022-09-28T02:44:05;99519.94;;;9.39;98.44
51496;BME280;37572;52.094;4.870;2022-09-28T02:46:56;99526.72;;;9.42;98.17
51496;BME280;37572;52.094;4.870;2022-09-28T02:49:39;99531.84;;;9.43;97.58
51496;BME280;37572;52.094;4.870;2022-09-28T02:55:05;99525.88;;;9.41;97.23
51496;BME280;37572;52.094;4.870;2022-09-28T02:58:00;99535.00;;;9.40;97.78
51496;BME280;37572;52.094;4.870;2022-09-28T03:00:29;99537.94;;;9.39;97.65
51496;BME280;37572;52.094;4.870;2022-09-28T03:10:40;99540.72;;;9.44;97.79
51496;BME280;37572;52.094;4.870;2022-09-28T03:13:07;99548.66;;;9.51;97.48
51496;BME280;37572;52.094;4.870;2022-09-28T03:15:34;99554.63;;;9.53;97.30
51496;BME280;37572;52.094;4.870;2022-09-28T03:18:00;99559.78;;;9.54;96.96
51496;BME280;37572;52.094;4.870;2022-09-28T03:20:27;99556.84;;;9.56;97.06
51496;BME280;37572;52.094;4.870;2022-09-28T03:22:52;99560.34;;;9.56;97.47
51496;BME280;37572;52.094;4.870;2022-09-28T03:25:18;99559.31;;;9.57;97.22
51496;BME280;37572;52.094;4.870;2022-09-28T03:27:43;99560.69;;;9.60;97.45
51496;BME280;37572;52.094;4.870;2022-09-28T03:30:10;99551.59;;;9.61;97.31
51496;BME280;37572;52.094;4.870;2022-09-28T03:32:36;99537.91;;;9.62;97.00
51496;BME280;37572;52.094;4.870;2022-09-28T03:35:01;99535.47;;;9.61;97.53
51496;BME280;37572;52.094;4.870;2022-09-28T03:37:27;99534.19;;;9.63;97.46
51496;BME280;37572;52.094;4.870;2022-09-28T03:39:52;99535.22;;;9.62;97.00
51496;BME280;37572;52.094;4.870;2022-09-28T03:42:18;99526.59;;;9.60;96.96
51496;BME280;37572;52.094;4.870;2022-09-28T03:44:43;99529.28;;;9.60;97.22
51496;BME280;37572;52.094;4.870;2022-09-28T03:47:09;99522.25;;;9.59;97.57
51496;BME280;37572;52.094;4.870;2022-09-28T03:49:35;99526.00;;;9.58;96.90
51496;BME280;37572;52.094;4.870;2022-09-28T03:52:00;99527.16;;;9.62;97.19
51496;BME280;37572;52.094;4.870;2022-09-28T03:54:26;99529.50;;;9.59;97.66
51496;BME280;37572;52.094;4.870;2022-09-28T03:56:51;99528.66;;;9.58;96.91
51496;BME280;37572;52.094;4.870;2022-09-28T03:59:17;99531.38;;;9.58;97.32
51496;BME280;37572;52.094;4.870;2022-09-28T04:01:42;99530.56;;;9.58;97.49
51496;BME280;37572;52.094;4.870;2022-09-28T04:04:11;99531.03;;;9.55;97.48
51496;BME280;37572;52.094;4.870;2022-09-28T04:06:37;99535.59;;;9.54;98.01
51496;BME280;37572;52.094;4.870;2022-09-28T04:09:02;99539.44;;;9.46;98.09
51496;BME280;37572;52.094;4.870;2022-09-28T04:11:27;99533.25;;;9.46;98.40
51496;BME280;37572;52.094;4.870;2022-09-28T04:13:52;99538.75;;;9.51;98.25
51496;BME280;37572;52.094;4.870;2022-09-28T04:16:18;99540.72;;;9.56;97.47
51496;BME280;37572;52.094;4.870;2022-09-28T04:18:43;99538.84;;;9.56;97.48
51496;BME280;37572;52.094;4.870;2022-09-28T04:21:11;99553.34;;;9.55;97.16
51496;BME280;37572;52.094;4.870;2022-09-28T04:23:38;99551.25;;;9.57;96.76
51496;BME280;37572;52.094;4.870;2022-09-28T04:26:06;99546.91;;;9.56;96.95
51496;BME280;37572;52.094;4.870;2022-09-28T04:28:32;99545.16;;;9.50;97.97
51496;BME280;37572;52.094;4.870;2022-09-28T04:31:18;99546.56;;;9.53;97.10
51496;BME280;37572;52.094;4.870;2022-09-28T04:33:43;99555.69;;;9.52;97.54
51496;BME280;37572;52.094;4.870;2022-09-28T04:36:09;99550.53;;;9.50;97.29
51496;BME280;37572;52.094;4.870;2022-09-28T04:38:35;99548.88;;;9.49;96.99
51496;BME280;37572;52.094;4.870;2022-09-28T04:41:01;99545.06;;;9.45;96.98
51496;BME280;37572;52.094;4.870;2022-09-28T04:43:26;99554.72;;;9.46;97.42
51496;BME280;37572;52.094;4.870;2022-09-28T04:45:56;99563.88;;;9.45;97.45
51496;BME280;37572;52.094;4.870;2022-09-28T04:48:22;99567.34;;;9.45;97.65
51496;BME280;37572;52.094;4.870;2022-09-28T04:50:52;99561.75;;;9.47;97.54
51496;BME280;37572;52.094;4.870;2022-09-28T04:53:18;99566.09;;;9.48;97.60
51496;BME280;37572;52.094;4.870;2022-09-28T04:55:43;99566.09;;;9.48;97.61
51496;BME280;37572;52.094;4.870;2022-09-28T04:58:09;99568.06;;;9.53;97.75
51496;BME280;37572;52.094;4.870;2022-09-28T05:00:34;99568.88;;;9.53;97.67
51496;BME280;37572;52.094;4.870;2022-09-28T05:03:00;99559.19;;;9.52;97.13
51496;BME280;37572;52.094;4.870;2022-09-28T05:05:25;99559.19;;;9.52;97.54
51496;BME280;37572;52.094;4.870;2022-09-28T05:07:50;99565.47;;;9.46;97.70
51496;BME280;37572;52.094;4.870;2022-09-28T05:10:16;99569.59;;;9.49;97.02
51496;BME280;37572;52.094;4.870;2022-09-28T05:12:41;99564.91;;;9.44;97.27
51496;BME280;37572;52.094;4.870;2022-09-28T05:15:08;99565.47;;;9.46;96.95
51496;BME280;37572;52.094;4.870;2022-09-28T05:17:33;99575.41;;;9.45;97.25
51496;BME280;37572;52.094;4.870;2022-09-28T05:19:59;99564.19;;;9.37;97.37
51496;BME280;37572;52.094;4.870;2022-09-28T05:22:24;99570.41;;;9.37;96.98
51496;BME280;37572;52.094;4.870;2022-09-28T05:24:50;99566.06;;;9.36;96.94
51496;BME280;37572;52.094;4.870;2022-09-28T05:27:15;99558.25;;;9.35;96.99
51496;BME280;37572;52.094;4.870;2022-09-28T05:29:41;99560.13;;;9.34;97.19
51496;BME280;37572;52.094;4.870;2022-09-28T05:32:06;99562.56;;;9.36;97.70
51496;BME280;37572;52.094;4.870;2022-09-28T05:34:31;99558.72;;;9.32;98.11
51496;BME280;37572;52.094;4.870;2022-09-28T05:36:57;99562.44;;;9.31;97.90
51496;BME280;37572;52.094;4.870;2022-09-28T05:39:23;99565.72;;;9.33;97.51
51496;BME280;37572;52.094;4.870;2022-09-28T05:41:48;99572.72;;;9.34;97.63
51496;BME280;37572;52.094;4.870;2022-09-28T05:44:13;99564.31;;;9.30;97.39
51496;BME280;37572;52.094;4.870;2022-09-28T05:46:39;99565.13;;;9.31;97.92
51496;BME280;37572;52.094;4.870;2022-09-28T05:49:04;99562.34;;;9.37;97.47
51496;BME280;37572;52.094;4.870;2022-09-28T05:51:29;99569.09;;;9.40;97.30
51496;BME280;37572;52.094;4.870;2022-09-28T05:53:55;99564.91;;;9.44;97.64
51496;BME280;37572;52.094;4.870;2022-09-28T05:56:21;99567.47;;;9.51;97.80
51496;BME280;37572;52.094;4.870;2022-09-28T05:58:46;99567.13;;;9.59;97.87
51496;BME280;37572;52.094;4.870;2022-09-28T06:01:11;99567.34;;;9.69;97.63
51496;BME280;37572;52.094;4.870;2022-09-28T06:03:37;99567.59;;;9.79;98.13
51496;BME280;37572;52.094;4.870;2022-09-28T06:06:02;99563.97;;;9.86;98.21
51496;BME280;37572;52.094;4.870;2022-09-28T06:08:30;99559.63;;;9.96;97.94
51496;BME280;37572;52.094;4.870;2022-09-28T06:11:00;99548.84;;;10.08;97.47
51496;BME280;37572;52.094;4.870;2022-09-28T06:13:26;99548.47;;;10.16;97.43
51496;BME280;37572;52.094;4.870;2022-09-28T06:15:51;99543.06;;;10.16;97.32
51496;BME280;37572;52.094;4.870;2022-09-28T06:18:17;99544.00;;;10.22;97.69
51496;BME280;37572;52.094;4.870;2022-09-28T06:20:42;99542.81;;;10.30;96.77
51496;BME280;37572;52.094;4.870;2022-09-28T06:23:09;99546.06;;;10.32;96.85
51496;BME280;37572;52.094;4.870;2022-09-28T06:25:35;99549.16;;;10.35;97.06
51496;BME280;37572;52.094;4.870;2022-09-28T06:28:03;99551.13;;;10.40;96.70
51496;BME280;37572;52.094;4.870;2022-09-28T06:30:31;99554.88;;;10.39;96.79
51496;BME280;37572;52.094;4.870;2022-09-28T06:32:58;99556.75;;;10.39;96.54
51496;BME280;37572;52.094;4.870;2022-09-28T06:35:25;99558.72;;;10.43;97.13
51496;BME280;37572;52.094;4.870;2022-09-28T06:37:52;99569.34;;;10.50;97.15
51496;BME280;37572;52.094;4.870;2022-09-28T06:40:18;99575.28;;;10.52;96.86
51496;BME280;37572;52.094;4.870;2022-09-28T06:42:44;99581.25;;;10.54;96.49
51496;BME280;37572;52.094;4.870;2022-09-28T06:45:09;99580.88;;;10.62;96.57
51496;BME280;37572;52.094;4.870;2022-09-28T06:47:36;99591.34;;;11.04;100.00
51496;BME280;37572;52.094;4.870;2022-09-28T06:50:02;99583.59;;;11.59;100.00
51496;BME280;37572;52.094;4.870;2022-09-28T06:52:28;99594.44;;;12.20;97.86
51496;BME280;37572;52.094;4.870;2022-09-28T06:54:53;99593.53;;;12.81;93.60
51496;BME280;37572;52.094;4.870;2022-09-28T06:57:18;99600.56;;;13.36;85.26
51496;BME280;37572;52.094;4.870;2022-09-28T06:59:43;99601.19;;;13.86;81.91
51496;BME280;37572;52.094;4.870;2022-09-28T07:02:10;99610.63;;;14.26;81.59
51496;BME280;37572;52.094;4.870;2022-09-28T07:04:39;99613.53;;;14.68;80.91
51496;BME280;37572;52.094;4.870;2022-09-28T07:07:07;99614.94;;;14.91;77.96
51496;BME280;37572;52.094;4.870;2022-09-28T07:09:32;99622.84;;;15.18;75.67
51496;BME280;37572;52.094;4.870;2022-09-28T07:11:58;99626.66;;;15.48;74.73
51496;BME280;37572;52.094;4.870;2022-09-28T07:14:24;99617.16;;;15.81;72.92
51496;BME280;37572;52.094;4.870;2022-09-28T07:16:49;99617.91;;;16.08;70.45
51496;BME280;37572;52.094;4.870;2022-09-28T07:19:15;99631.16;;;16.35;69.08
51496;BME280;37572;52.094;4.870;2022-09-28T07:21:40;99621.53;;;16.63;68.13
51496;BME280;37572;52.094;4.870;2022-09-28T07:24:05;99621.69;;;16.92;66.71
51496;BME280;37572;52.094;4.870;2022-09-28T07:26:31;99616.09;;;17.13;66.03
51496;BME280;37572;52.094;4.870;2022-09-28T07:28:57;99619.38;;;17.15;64.79
51496;BME280;37572;52.094;4.870;2022-09-28T07:31:22;99624.13;;;16.89;65.38
51496;BME280;37572;52.094;4.870;2022-09-28T07:33:49;99621.50;;;16.68;68.08
51496;BME280;37572;52.094;4.870;2022-09-28T07:36:15;99633.28;;;16.43;68.57
51496;BME280;37572;52.094;4.870;2022-09-28T07:38:44;99631.75;;;16.16;69.75
51496;BME280;37572;52.094;4.870;2022-09-28T07:41:10;99632.88;;;15.74;71.37
51496;BME280;37572;52.094;4.870;2022-09-28T07:43:35;99629.63;;;15.21;74.03
51496;BME280;37572;52.094;4.870;2022-09-28T07:46:00;99637.97;;;14.88;76.13
51496;BME280;37572;52.094;4.870;2022-09-28T07:48:26;99638.16;;;14.61;77.17
51496;BME280;37572;52.094;4.870;2022-09-28T07:50:53;99636.69;;;14.43;77.96
51496;BME280;37572;52.094;4.870;2022-09-28T07:53:20;99643.69;;;14.34;78.66
51496;BME280;37572;52.094;4.870;2022-09-28T07:55:54;99647.22;;;14.34;78.13
51496;BME280;37572;52.094;4.870;2022-09-28T07:58:21;99634.47;;;14.35;78.18
51496;BME280;37572;52.094;4.870;2022-09-28T08:00:47;99639.38;;;14.38;78.15
51496;BME280;37572;52.094;4.870;2022-09-28T08:03:18;99648.59;;;14.37;78.36
51496;BME280;37572;52.094;4.870;2022-09-28T08:05:44;99650.72;;;14.35;79.24
51496;BME280;37572;52.094;4.870;2022-09-28T08:08:10;99653.44;;;14.35;80.27
51496;BME280;37572;52.094;4.870;2022-09-28T08:10:36;99652.88;;;14.33;80.16
51496;BME280;37572;52.094;4.870;2022-09-28T08:13:02;99653.44;;;14.35;80.55
51496;BME280;37572;52.094;4.870;2022-09-28T08:15:31;99650.97;;;14.28;80.53
51496;BME280;37572;52.094;4.870;2022-09-28T08:18:00;99654.53;;;14.34;81.35
51496;BME280;37572;52.094;4.870;2022-09-28T08:20:25;99652.38;;;14.41;81.14
51496;BME280;37572;52.094;4.870;2022-09-28T08:23:09;99658.38;;;14.43;80.75
51496;BME280;37572;52.094;4.870;2022-09-28T08:25:35;99656.72;;;14.37;80.82
51496;BME280;37572;52.094;4.870;2022-09-28T08:28:05;99662.66;;;14.39;80.92
51496;BME280;37572;52.094;4.870;2022-09-28T08:30:33;99665.69;;;14.48;80.61
51496;BME280;37572;52.094;4.870;2022-09-28T08:32:59;99664.09;;;14.52;80.03
51496;BME280;37572;52.094;4.870;2022-09-28T08:35:24;99671.44;;;14.56;79.29
51496;BME280;37572;52.094;4.870;2022-09-28T08:37:51;99667.63;;;14.57;78.76
51496;BME280;37572;52.094;4.870;2022-09-28T08:40:20;99675.22;;;14.55;78.94
51496;BME280;37572;52.094;4.870;2022-09-28T08:42:51;99675.56;;;14.64;79.17
51496;BME280;37572;52.094;4.870;2022-09-28T08:45:22;99675.31;;;14.71;78.99
51496;BME280;37572;52.094;4.870;2022-09-28T08:48:03;99676.69;;;14.78;77.87
51496;BME280;37572;52.094;4.870;2022-09-28T08:51:06;99687.59;;;14.94;77.38
51496;BME280;37572;52.094;4.870;2022-09-28T08:53:54;99692.25;;;15.09;77.35
51496;BME280;37572;52.094;4.870;2022-09-28T08:56:42;99693.63;;;15.16;77.25
51496;BME280;37572;52.094;4.870;2022-09-28T08:59:20;99700.69;;;15.23;76.49
51496;BME280;37572;52.094;4.870;2022-09-28T09:01:54;99703.41;;;15.28;76.74
51496;BME280;37572;52.094;4.870;2022-09-28T09:04:21;99706.69;;;15.45;76.78
51496;BME280;37572;52.094;4.870;2022-09-28T09:15:09;99711.06;;;16.03;69.82
51496;BME280;37572;52.094;4.870;2022-09-28T09:17:48;99710.25;;;16.13;70.83
51496;BME280;37572;52.094;4.870;2022-09-28T09:22:59;99710.72;;;16.51;67.82
51496;BME280;37572;52.094;4.870;2022-09-28T09:25:29;99710.09;;;16.74;67.30
51496;BME280;37572;52.094;4.870;2022-09-28T09:30:49;99710.31;;;16.99;66.30
51496;BME280;37572;52.094;4.870;2022-09-28T09:41:58;99707.56;;;15.97;66.91
51496;BME280;37572;52.094;4.870;2022-09-28T09:44:47;99709.19;;;15.93;69.01
51496;BME280;37572;52.094;4.870;2022-09-28T09:47:25;99713.53;;;15.99;70.21
51496;BME280;37572;52.094;4.870;2022-09-28T09:50:21;99707.22;;;16.25;70.84
51496;BME280;37572;52.094;4.870;2022-09-28T09:53:22;99712.91;;;16.54;69.30
51496;BME280;37572;52.094;4.870;2022-09-28T09:55:53;99704.38;;;16.76;68.13
51496;BME280;37572;52.094;4.870;2022-09-28T09:58:34;99705.72;;;16.89;67.73
51496;BME280;37572;52.094;4.870;2022-09-28T10:01:07;99708.66;;;16.98;65.04
51496;BME280;37572;52.094;4.870;2022-09-28T10:03:39;99710.50;;;17.07;66.78
51496;BME280;37572;52.094;4.870;2022-09-28T10:06:14;99713.19;;;17.23;68.07
51496;BME280;37572;52.094;4.870;2022-09-28T10:08:43;99712.22;;;17.43;64.90
51496;BME280;37572;52.094;4.870;2022-09-28T10:11:14;99715.75;;;17.83;62.85
51496;BME280;37572;52.094;4.870;2022-09-28T10:13:40;99718.66;;;18.26;60.72
51496;BME280;37572;52.094;4.870;2022-09-28T10:16:07;99713.34;;;18.11;59.25
51496;BME280;37572;52.094;4.870;2022-09-28T10:18:32;99717.72;;;18.36;60.53
51496;BME280;37572;52.094;4.870;2022-09-28T10:20:58;99721.91;;;18.77;59.36
51496;BME280;37572;52.094;4.870;2022-09-28T10:23:28;99712.81;;;19.30;57.69
51496;BME280;37572;52.094;4.870;2022-09-28T10:26:14;99723.84;;;19.95;55.33
51496;BME280;37572;52.094;4.870;2022-09-28T10:31:34;99725.78;;;19.19;57.86
51496;BME280;37572;52.094;4.870;2022-09-28T10:34:00;99722.59;;;18.39;58.19
51496;BME280;37572;52.094;4.870;2022-09-28T10:36:26;99720.53;;;17.62;60.91
51496;BME280;37572;52.094;4.870;2022-09-28T10:38:52;99711.63;;;17.06;63.21
51496;BME280;37572;52.094;4.870;2022-09-28T10:41:18;99716.56;;;17.44;64.49
51496;BME280;37572;52.094;4.870;2022-09-28T10:43:55;99705.81;;;18.03;62.34
51496;BME280;37572;52.094;4.870;2022-09-28T10:46:34;99717.75;;;18.60;60.49
51496;BME280;37572;52.094;4.870;2022-09-28T10:49:05;99717.94;;;18.93;58.18
51496;BME280;37572;52.094;4.870;2022-09-28T10:51:49;99710.72;;;19.02;60.23
51496;BME280;37572;52.094;4.870;2022-09-28T10:54:33;99719.78;;;18.98;58.92
51496;BME280;37572;52.094;4.870;2022-09-28T10:56:59;99714.44;;;18.87;56.73
51496;BME280;37572;52.094;4.870;2022-09-28T11:02:12;99721.44;;;19.18;56.90
51496;BME280;37572;52.094;4.870;2022-09-28T11:04:42;99718.28;;;19.30;56.58
51496;BME280;37572;52.094;4.870;2022-09-28T11:07:16;99707.41;;;19.24;55.53
51496;BME280;37572;52.094;4.870;2022-09-28T11:09:45;99713.47;;;19.21;54.90
51496;BME280;37572;52.094;4.870;2022-09-28T11:12:18;99718.53;;;18.90;53.33
51496;BME280;37572;52.094;4.870;2022-09-28T11:14:45;99704.97;;;18.56;54.21
51496;BME280;37572;52.094;4.870;2022-09-28T11:19:50;99703.16;;;18.22;54.56
51496;BME280;37572;52.094;4.870;2022-09-28T11:27:40;99719.72;;;18.54;54.87
51496;BME280;37572;52.094;4.870;2022-09-28T11:30:28;99717.56;;;18.27;55.47
51496;BME280;37572;52.094;4.870;2022-09-28T11:33:09;99711.81;;;17.99;56.04
51496;BME280;37572;52.094;4.870;2022-09-28T11:35:45;99711.66;;;17.86;57.16
51496;BME280;37572;52.094;4.870;2022-09-28T11:40:53;99726.78;;;17.23;60.34
51496;BME280;37572;52.094;4.870;2022-09-28T11:43:39;99722.06;;;16.73;63.70
51496;BME280;37572;52.094;4.870;2022-09-28T11:46:14;99711.84;;;16.39;65.16
51496;BME280;37572;52.094;4.870;2022-09-28T11:48:47;99716.50;;;16.13;65.80
51496;BME280;37572;52.094;4.870;2022-09-28T11:51:17;99711.59;;;16.20;65.72
51496;BME280;37572;52.094;4.870;2022-09-28T11:54:02;99722.97;;;16.28;66.51
51496;BME280;37572;52.094;4.870;2022-09-28T11:56:31;99725.97;;;16.26;67.77
51496;BME280;37572;52.094;4.870;2022-09-28T11:59:23;99722.19;;;16.27;70.11
51496;BME280;37572;52.094;4.870;2022-09-28T12:01:50;99729.16;;;17.74;70.38
51496;BME280;37572;52.094;4.870;2022-09-28T12:04:24;99743.72;;;19.82;65.43
51496;BME280;37572;52.094;4.870;2022-09-28T12:06:59;99732.28;;;20.88;59.37
51496;BME280;37572;52.094;4.870;2022-09-28T12:09:38;99726.06;;;20.40;59.05
51496;BME280;37572;52.094;4.870;2022-09-28T12:12:19;99731.09;;;19.86;59.70
51496;BME280;37572;52.094;4.870;2022-09-28T12:14:47;99721.88;;;19.82;61.16
51496;BME280;37572;52.094;4.870;2022-09-28T12:17:29;99720.31;;;20.70;58.64
51496;BME280;37572;52.094;4.870;2022-09-28T12:20:15;99721.34;;;20.74;55.82
51496;BME280;37572;52.094;4.870;2022-09-28T12:25:39;99727.16;;;18.73;59.24
51496;BME280;37572;52.094;4.870;2022-09-28T12:28:16;99731.00;;;17.84;61.26
51496;BME280;37572;52.094;4.870;2022-09-28T12:30:44;99729.81;;;17.11;64.01
51496;BME280;37572;52.094;4.870;2022-09-28T12:33:13;99718.84;;;16.61;66.06
51496;BME280;37572;52.094;4.870;2022-09-28T12:36:08;99717.84;;;16.21;67.91
51496;BME280;37572;52.094;4.870;2022-09-28T12:39:02;99718.41;;;15.87;69.94
51496;BME280;37572;52.094;4.870;2022-09-28T12:45:35;99700.72;;;15.48;74.53
51496;BME280;37572;52.094;4.870;2022-09-28T12:58:10;99718.88;;;15.22;73.60
51496;BME280;37572;52.094;4.870;2022-09-28T13:01:04;99720.44;;;15.08;74.47
51496;BME280;37572;52.094;4.870;2022-09-28T13:03:51;99722.28;;;14.97;74.83
51496;BME280;37572;52.094;4.870;2022-09-28T13:09:23;99735.50;;;14.78;74.52
51496;BME280;37572;52.094;4.870;2022-09-28T13:15:02;99742.50;;;14.69;74.39
51496;BME280;37572;52.094;4.870;2022-09-28T13:17:53;99747.50;;;14.44;73.36
51496;BME280;37572;52.094;4.870;2022-09-28T13:25:35;99749.00;;;13.93;70.80
51496;BME280;37572;52.094;4.870;2022-09-28T13:28:05;99742.94;;;13.80;70.92
51496;BME280;37572;52.094;4.870;2022-09-28T13:30:34;99754.28;;;13.77;71.31
51496;BME280;37572;52.094;4.870;2022-09-28T13:33:04;99749.06;;;13.70;71.33
51496;BME280;37572;52.094;4.870;2022-09-28T13:35:30;99753.88;;;13.63;71.13
51496;BME280;37572;52.094;4.870;2022-09-28T13:46:36;99752.50;;;13.33;74.03
51496;BME280;37572;52.094;4.870;2022-09-28T13:52:03;99745.75;;;13.14;72.73
51496;BME280;37572;52.094;4.870;2022-09-28T13:57:25;99742.25;;;12.91;71.68
51496;BME280;37572;52.094;4.870;2022-09-28T14:02:35;99744.38;;;12.67;72.92
51496;BME280;37572;52.094;4.870;2022-09-28T14:05:30;99742.94;;;12.59;72.44
51496;BME280;37572;52.094;4.870;2022-09-28T14:08:09;99751.69;;;12.66;71.68
51496;BME280;37572;52.094;4.870;2022-09-28T14:10:55;99749.34;;;12.75;71.30
51496;BME280;37572;52.094;4.870;2022-09-28T14:18:50;99757.25;;;13.04;72.69
51496;BME280;37572;52.094;4.870;2022-09-28T14:29:34;99778.09;;;13.48;73.83
51496;BME280;37572;52.094;4.870;2022-09-28T14:34:39;99781.72;;;13.59;73.93
51496;BME280;37572;52.094;4.870;2022-09-28T14:37:19;99773.66;;;13.69;74.62
51496;BME280;37572;52.094;4.870;2022-09-28T14:40:23;99780.56;;;13.82;74.26
51496;BME280;37572;52.094;4.870;2022-09-28T14:43:35;99773.91;;;13.95;74.48
51496;BME280;37572;52.094;4.870;2022-09-28T14:48:57;99783.78;;;14.06;73.80
51496;BME280;37572;52.094;4.870;2022-09-28T14:53:56;99781.81;;;14.34;75.20
51496;BME280;37572;52.094;4.870;2022-09-28T14:56:39;99778.31;;;14.38;75.10
51496;BME280;37572;52.094;4.870;2022-09-28T14:59:13;99777.88;;;14.52;74.06
51496;BME280;37572;52.094;4.870;2022-09-28T15:01:44;99776.53;;;14.54;74.73
51496;BME280;37572;52.094;4.870;2022-09-28T15:04:13;99785.56;;;14.65;74.73
51496;BME280;37572;52.094;4.870;2022-09-28T15:06:47;99780.44;;;14.69;74.50
51496;BME280;37572;52.094;4.870;2022-09-28T15:09:34;99782.66;;;14.82;75.03
51496;BME280;37572;52.094;4.870;2022-09-28T15:12:02;99785.94;;;14.84;74.22
51496;BME280;37572;52.094;4.870;2022-09-28T15:14:29;99785.94;;;14.84;73.45
51496;BME280;37572;52.094;4.870;2022-09-28T15:16:57;99788.91;;;14.83;73.86
51496;BME280;37572;52.094;4.870;2022-09-28T15:22:28;99791.31;;;14.79;74.49
51496;BME280;37572;52.094;4.870;2022-09-28T15:24:56;99787.00;;;14.78;74.76
51496;BME280;37572;52.094;4.870;2022-09-28T15:27:23;99788.88;;;14.77;74.75
51496;BME280;37572;52.094;4.870;2022-09-28T15:32:24;99778.59;;;14.79;75.35
51496;BME280;37572;52.094;4.870;2022-09-28T15:34:50;99784.03;;;14.79;74.21
51496;BME280;37572;52.094;4.870;2022-09-28T15:37:36;99789.13;;;14.71;72.31
51496;BME280;37572;52.094;4.870;2022-09-28T15:40:13;99783.38;;;14.62;72.36
51496;BME280;37572;52.094;4.870;2022-09-28T15:42:41;99785.47;;;14.55;72.66
51496;BME280;37572;52.094;4.870;2022-09-28T15:47:40;99791.34;;;14.41;72.84
51496;BME280;37572;52.094;4.870;2022-09-28T15:50:31;99782.84;;;14.27;73.74